createdAt,value
2022-09-04T00:03:14.297Z,100.00
2022-09-04T00:07:39.695Z,100.00
2022-09-04T00:12:08.975Z,100.00
2022-09-04T00:16:20.585Z,100.00
2022-09-04T00:20:39.100Z,100.00
2022-09-04T00:24:49.345Z,100.00
2022-09-04T00:28:58.764Z,100.00
2022-09-04T00:33:16.016Z,100.00
2022-09-04T00:37:23.494Z,100.00
2022-09-04T00:41:32.946Z,100.00
2022-09-04T00:46:05.498Z,100.00
2022-09-04T00:50:09.639Z,100.00
2022-09-04T00:54:33.916Z,100.00
2022-09-04T00:58:48.679Z,100.00
2022-09-04T01:03:32.708Z,100.00
2022-09-04T01:07:47.076Z,100.00
2022-09-04T01:11:55.178Z,100.00
2022-09-04T01:16:09.320Z,100.00
2022-09-04T01:20:24.920Z,100.00
2022-09-04T01:24:47.148Z,100.00
2022-09-04T01:29:10.417Z,100.00
2022-09-04T01:33:21.516Z,100.00
2022-09-04T01:37:51.090Z,100.00
2022-09-04T01:41:59.804Z,100.00
2022-09-04T01:46:15.978Z,100.00
2022-09-04T01:50:25.842Z,100.00
2022-09-04T01:54:42.550Z,100.00
2022-09-04T01:58:51.859Z,100.00
2022-09-04T02:02:56.719Z,100.00
2022-09-04T02:07:05.303Z,100.00
2022-09-04T02:11:27.806Z,100.00
2022-09-04T02:16:14.539Z,100.00
2022-09-04T02:20:21.920Z,100.00
2022-09-04T02:24:30.163Z,100.00
2022-09-04T02:28:53.531Z,100.00
2022-09-04T02:33:06.593Z,100.00
2022-09-04T02:37:27.671Z,100.00
2022-09-04T02:42:03.977Z,100.00
2022-09-04T02:46:24.997Z,100.00
2022-09-04T02:50:49.923Z,100.00
2022-09-04T02:55:44.636Z,100.00
2022-09-04T03:00:21.137Z,100.00
2022-09-04T03:04:50.170Z,100.00
2022-09-04T03:09:07.680Z,100.00
2022-09-04T03:13:21.848Z,100.00
2022-09-04T03:17:30.116Z,100.00
2022-09-04T03:21:53.401Z,100.00
2022-09-04T03:26:19.553Z,100.00
2022-09-04T03:30:21.870Z,100.00
2022-09-04T03:34:28.829Z,100.00
2022-09-04T03:38:40.221Z,100.00
2022-09-04T03:42:50.564Z,100.00
2022-09-04T03:47:11.197Z,100.00
2022-09-04T03:51:31.751Z,100.00
2022-09-04T03:56:07.716Z,100.00
2022-09-04T04:00:11.177Z,100.00
2022-09-04T04:04:35.402Z,100.00
2022-09-04T04:08:56.801Z,100.00
2022-09-04T04:13:14.314Z,100.00
2022-09-04T04:17:38.925Z,100.00
2022-09-04T04:22:08.004Z,100.00
2022-09-04T04:26:16.577Z,100.00
2022-09-04T04:30:19.911Z,100.00
2022-09-04T04:34:47.366Z,100.00
2022-09-04T04:39:13.670Z,100.00
2022-09-04T04:43:24.863Z,100.00
2022-09-04T04:47:54.989Z,100.00
2022-09-04T04:52:11.332Z,100.00
2022-09-04T04:56:29.809Z,100.00
2022-09-04T05:00:40.948Z,100.00
2022-09-04T05:05:14.017Z,100.00
2022-09-04T05:09:37.326Z,100.00
2022-09-04T05:13:53.600Z,100.00
2022-09-04T05:18:06.676Z,100.00
2022-09-04T05:22:40.864Z,100.00
2022-09-04T05:26:59.678Z,100.00
2022-09-04T05:31:20.330Z,100.00
2022-09-04T05:35:35.466Z,100.00
2022-09-04T05:40:03.271Z,100.00
2022-09-04T05:44:20.990Z,100.00
2022-09-04T05:48:28.082Z,100.00
2022-09-04T05:52:45.164Z,100.00
2022-09-04T05:57:12.936Z,100.00
2022-09-04T06:01:27.407Z,100.00
2022-09-04T06:05:38.744Z,100.00
2022-09-04T06:09:58.480Z,100.00
2022-09-04T06:14:13.642Z,100.00
2022-09-04T06:18:26.495Z,100.00
2022-09-04T06:22:38.325Z,100.00
2022-09-04T06:27:04.706Z,100.00
2022-09-04T06:31:12.820Z,100.00
2022-09-04T06:35:34.367Z,100.00
2022-09-04T06:40:00.972Z,100.00
2022-09-04T06:44:12.325Z,100.00
2022-09-04T06:48:34.774Z,100.00
2022-09-04T06:53:07.442Z,100.00
2022-09-04T06:57:18.561Z,100.00
2022-09-04T07:01:41.850Z,100.00
2022-09-04T07:06:01.037Z,100.00
2022-09-04T07:10:11.110Z,100.00
2022-09-04T07:14:34.572Z,100.00
2022-09-04T07:18:54.462Z,100.00
2022-09-04T07:23:08.710Z,100.00
2022-09-04T07:27:23.050Z,100.00
2022-09-04T07:31:44.423Z,100.00
2022-09-04T07:36:14.033Z,100.00
2022-09-04T07:40:21.189Z,100.00
2022-09-04T07:44:49.130Z,100.00
2022-09-04T07:49:04.351Z,100.00
2022-09-04T07:53:22.564Z,100.00
2022-09-04T07:57:43.549Z,100.00
2022-09-04T08:02:13.480Z,100.00
2022-09-04T08:06:35.628Z,100.00
2022-09-04T08:10:51.449Z,100.00
2022-09-04T08:14:56.487Z,100.00
2022-09-04T08:19:18.731Z,100.00
2022-09-04T08:23:29.901Z,100.00
2022-09-04T08:28:00.991Z,100.00
2022-09-04T08:32:21.891Z,100.00
2022-09-04T08:36:49.769Z,100.00
2022-09-04T08:41:26.168Z,100.00
2022-09-04T08:45:53.393Z,100.00
2022-09-04T08:50:13.905Z,100.00
2022-09-04T08:54:45.251Z,100.00
2022-09-04T08:58:56.406Z,100.00
2022-09-04T09:03:49.072Z,100.00
2022-09-04T09:08:13.408Z,100.00
2022-09-04T09:12:40.783Z,100.00
2022-09-04T09:17:03.128Z,100.00
2022-09-04T09:21:34.782Z,100.00
2022-09-04T09:26:06.496Z,100.00
2022-09-04T09:30:19.635Z,100.00
2022-09-04T09:34:50.041Z,100.00
2022-09-04T09:39:23.649Z,100.00
2022-09-04T09:44:05.175Z,100.00
2022-09-04T09:48:49.514Z,100.00
2022-09-04T09:53:03.680Z,100.00
2022-09-04T09:57:19.735Z,100.00
2022-09-04T10:01:42.583Z,100.00
2022-09-04T10:06:03.481Z,100.00
2022-09-04T10:10:36.515Z,100.00
2022-09-04T10:15:06.769Z,100.00
2022-09-04T10:19:12.654Z,100.00
2022-09-04T10:23:17.893Z,100.00
2022-09-04T10:27:29.330Z,95.49
2022-09-04T10:31:43.628Z,100.00
2022-09-04T10:35:54.326Z,86.20
2022-09-04T10:40:43.359Z,86.51
2022-09-04T10:45:02.750Z,90.52
2022-09-04T10:49:30.633Z,85.19
2022-09-04T10:53:35.596Z,92.39
2022-09-04T10:58:05.355Z,84.25
2022-09-04T11:02:35.664Z,84.37
2022-09-04T11:07:10.231Z,85.24
2022-09-04T11:11:35.200Z,87.51
2022-09-04T11:15:52.205Z,89.55
2022-09-04T11:20:18.255Z,76.38
2022-09-04T11:24:33.574Z,79.36
2022-09-04T11:28:57.150Z,78.94
2022-09-04T11:33:37.620Z,78.08
2022-09-04T11:37:59.848Z,75.32
2022-09-04T11:42:25.182Z,76.82
2022-09-04T11:46:33.813Z,83.89
2022-09-04T11:50:47.320Z,82.10
2022-09-04T11:55:17.064Z,73.12
2022-09-04T11:59:30.495Z,75.73
2022-09-04T12:04:00.313Z,78.95
2022-09-04T12:08:23.419Z,81.43
2022-09-04T12:12:51.585Z,80.29
2022-09-04T12:17:25.988Z,80.91
2022-09-04T12:21:51.835Z,77.97
2022-09-04T12:26:03.764Z,79.04
2022-09-04T12:30:26.100Z,85.16
2022-09-04T12:34:43.915Z,88.37
2022-09-04T12:39:24.474Z,82.01
2022-09-04T12:43:43.322Z,83.74
2022-09-04T12:48:00.830Z,84.01
2022-09-04T12:52:20.000Z,79.66
2022-09-04T12:56:44.907Z,78.40
2022-09-04T13:01:10.644Z,77.99
2022-09-04T13:05:54.709Z,74.06
2022-09-04T13:10:49.205Z,77.05
2022-09-04T13:15:38.643Z,75.58
2022-09-04T13:20:16.658Z,76.69
2022-09-04T13:30:08.011Z,74.92
2022-09-04T13:35:02.102Z,72.06
2022-09-04T13:52:00.572Z,85.69
2022-09-04T13:56:16.162Z,85.02
2022-09-04T14:00:19.659Z,86.14
2022-09-04T14:09:45.639Z,80.55
2022-09-04T14:14:04.929Z,77.67
2022-09-04T14:18:47.156Z,62.39
2022-09-04T14:23:06.641Z,69.75
2022-09-04T14:27:23.916Z,68.98
2022-09-04T14:31:35.400Z,71.45
2022-09-04T14:35:50.981Z,76.87
2022-09-04T14:40:03.236Z,72.89
2022-09-04T14:44:49.759Z,68.82
2022-09-04T14:49:01.741Z,67.18
2022-09-04T14:53:09.326Z,69.69
2022-09-04T14:57:50.466Z,66.90
2022-09-04T15:02:19.131Z,63.11
2022-09-04T15:06:32.433Z,67.04
2022-09-04T15:10:53.966Z,68.28
2022-09-04T15:15:15.111Z,59.04
2022-09-04T15:19:51.668Z,57.89
2022-09-04T15:24:35.142Z,59.05
2022-09-04T15:28:48.357Z,61.01
2022-09-04T15:33:42.318Z,54.17
2022-09-04T15:37:48.576Z,59.45
2022-09-04T15:41:57.150Z,59.55
2022-09-04T15:46:29.741Z,58.17
2022-09-04T15:50:50.763Z,62.96
2022-09-04T15:55:19.958Z,67.27
2022-09-04T15:59:30.202Z,68.05
2022-09-04T16:03:47.460Z,61.98
2022-09-04T16:08:03.177Z,67.19
2022-09-04T16:12:20.773Z,70.42
2022-09-04T16:16:45.597Z,70.32
2022-09-04T16:21:00.189Z,69.50
2022-09-04T16:25:08.918Z,69.62
2022-09-04T16:29:26.992Z,70.54
2022-09-04T16:33:44.561Z,71.27
2022-09-04T16:38:19.978Z,67.11
2022-09-04T16:42:50.252Z,61.23
2022-09-04T16:47:10.607Z,62.14
2022-09-04T16:51:55.405Z,60.08
2022-09-04T16:56:16.558Z,61.85
2022-09-04T17:00:22.530Z,62.20
2022-09-04T17:04:27.826Z,63.59
2022-09-04T17:08:38.633Z,64.60
2022-09-04T17:12:40.934Z,70.08
2022-09-04T17:17:04.164Z,68.51
2022-09-04T17:26:44.373Z,68.86
2022-09-04T17:29:07.926Z,70.29
2022-09-04T17:30:46.480Z,72.71
2022-09-04T17:40:44.603Z,76.44
2022-09-04T17:40:50.141Z,79.89
2022-09-04T17:44:11.391Z,85.78
2022-09-04T17:48:39.299Z,93.94
2022-09-04T17:53:00.422Z,96.44
2022-09-04T17:57:26.183Z,100.00
2022-09-04T18:01:43.198Z,100.00
2022-09-04T18:05:53.558Z,100.00
2022-09-04T18:10:09.262Z,100.00
2022-09-04T18:14:31.986Z,100.00
2022-09-04T18:18:45.709Z,100.00
2022-09-04T18:23:06.360Z,100.00
2022-09-04T18:27:19.121Z,100.00
2022-09-04T18:37:08.433Z,100.00
2022-09-04T18:37:17.428Z,100.00
2022-09-04T18:42:21.831Z,100.00
2022-09-04T18:50:50.179Z,100.00
2022-09-04T18:50:50.872Z,100.00
2022-09-04T18:54:23.134Z,100.00
2022-09-04T18:59:00.873Z,100.00
2022-09-04T19:03:45.168Z,100.00
2022-09-04T19:07:59.795Z,100.00
2022-09-04T19:12:09.773Z,100.00
2022-09-04T19:16:18.886Z,100.00
2022-09-04T19:20:25.656Z,100.00
2022-09-04T19:24:39.210Z,100.00
2022-09-04T19:28:53.137Z,100.00
2022-09-04T19:33:04.686Z,100.00
2022-09-04T19:40:51.844Z,100.00
2022-09-04T19:46:08.157Z,100.00
2022-09-04T19:46:44.426Z,100.00
2022-09-04T19:53:30.392Z,100.00
2022-09-04T19:55:23.447Z,100.00
2022-09-04T19:59:32.060Z,100.00
2022-09-04T20:03:45.513Z,100.00
2022-09-04T20:08:14.112Z,100.00
2022-09-04T20:12:28.572Z,100.00
2022-09-04T20:16:48.482Z,100.00
2022-09-04T20:20:59.077Z,100.00
2022-09-04T20:25:07.515Z,100.00
2022-09-04T20:29:15.711Z,100.00
2022-09-04T20:33:22.191Z,100.00
2022-09-04T20:37:41.344Z,100.00
2022-09-04T20:41:54.828Z,100.00
2022-09-04T20:48:45.665Z,100.00
2022-09-04T20:52:53.161Z,100.00
2022-09-04T20:55:36.431Z,100.00
2022-09-04T21:03:23.364Z,100.00
2022-09-04T21:04:43.505Z,100.00
2022-09-04T21:08:55.391Z,100.00
2022-09-04T21:13:13.778Z,100.00
2022-09-04T21:17:45.583Z,100.00
2022-09-04T21:22:39.937Z,100.00
2022-09-04T21:27:03.750Z,100.00
2022-09-04T21:31:33.316Z,100.00
2022-09-04T21:35:52.541Z,100.00
2022-09-04T21:39:58.278Z,100.00
2022-09-04T21:44:24.131Z,100.00
2022-09-04T21:48:55.471Z,100.00
2022-09-04T21:53:43.664Z,100.00
2022-09-04T22:02:28.385Z,100.00
2022-09-04T22:02:57.838Z,100.00
2022-09-04T22:12:05.045Z,100.00
2022-09-04T22:13:43.378Z,100.00
2022-09-04T22:16:28.987Z,100.00
2022-09-04T22:20:51.657Z,100.00
2022-09-04T22:25:33.067Z,100.00
2022-09-04T22:30:01.796Z,100.00
2022-09-04T22:34:15.458Z,100.00
2022-09-04T22:38:31.534Z,100.00
2022-09-04T22:42:55.854Z,100.00
2022-09-04T22:47:26.045Z,100.00
2022-09-04T22:51:56.496Z,100.00
2022-09-04T22:56:22.688Z,100.00
2022-09-04T23:00:23.662Z,100.00
2022-09-04T23:04:46.625Z,100.00
2022-09-04T23:13:49.763Z,100.00
2022-09-04T23:14:07.481Z,100.00
2022-09-04T23:26:35.389Z,100.00
2022-09-04T23:26:46.441Z,100.00
2022-09-04T23:27:35.611Z,100.00
2022-09-04T23:32:13.435Z,100.00
2022-09-04T23:36:53.632Z,100.00
2022-09-04T23:41:23.608Z,100.00
2022-09-04T23:45:34.774Z,100.00
2022-09-04T23:50:02.352Z,100.00
2022-09-04T23:54:25.394Z,100.00
2022-09-04T23:59:24.492Z,100.00
